sensor_id;sensor_type;location;lat;lon;timestamp;P1;durP1;ratioP1;P2;durP2;ratioP2
3487;SDS011;38546;48.170;11.724;2024-02-26T00:00:58;9.37;;;7.50;;
3487;SDS011;38546;48.170;11.724;2024-02-26T00:03:29;12.80;;;7.70;;
3487;SDS011;38546;48.170;11.724;2024-02-26T00:06:00;10.50;;;7.80;;
3487;SDS011;38546;48.170;11.724;2024-02-26T00:08:30;11.00;;;7.87;;
3487;SDS011;38546;48.170;11.724;2024-02-26T00:11:01;11.73;;;7.40;;
3487;SDS011;38546;48.170;11.724;2024-02-26T00:13:32;10.83;;;7.50;;
3487;SDS011;38546;48.170;11.724;2024-02-26T00:16:03;10.53;;;7.70;;
3487;SDS011;38546;48.170;11.724;2024-02-26T00:18:36;10.00;;;6.73;;
3487;SDS011;38546;48.170;11.724;2024-02-26T00:21:07;11.20;;;7.20;;
3487;SDS011;38546;48.170;11.724;2024-02-26T00:23:37;13.93;;;8.27;;
3487;SDS011;38546;48.170;11.724;2024-02-26T00:26:08;14.97;;;8.70;;
3487;SDS011;38546;48.170;11.724;2024-02-26T00:28:41;15.93;;;9.40;;
3487;SDS011;38546;48.170;11.724;2024-02-26T00:31:11;17.40;;;8.70;;
3487;SDS011;38546;48.170;11.724;2024-02-26T00:33:42;15.07;;;9.30;;
3487;SDS011;38546;48.170;11.724;2024-02-26T00:36:13;10.87;;;8.03;;
3487;SDS011;38546;48.170;11.724;2024-02-26T00:38:44;14.13;;;9.47;;
3487;SDS011;38546;48.170;11.724;2024-02-26T00:41:16;17.03;;;9.50;;
3487;SDS011;38546;48.170;11.724;2024-02-26T00:43:48;15.73;;;9.63;;
3487;SDS011;38546;48.170;11.724;2024-02-26T00:46:18;13.10;;;9.17;;
3487;SDS011;38546;48.170;11.724;2024-02-26T00:48:49;11.87;;;8.83;;
3487;SDS011;38546;48.170;11.724;2024-02-26T00:51:19;13.93;;;8.57;;
3487;SDS011;38546;48.170;11.724;2024-02-26T00:53:50;14.53;;;8.17;;
3487;SDS011;38546;48.170;11.724;2024-02-26T00:56:21;14.93;;;8.07;;
3487;SDS011;38546;48.170;11.724;2024-02-26T00:58:52;12.80;;;8.70;;
3487;SDS011;38546;48.170;11.724;2024-02-26T01:01:22;12.33;;;8.03;;
3487;SDS011;38546;48.170;11.724;2024-02-26T01:03:53;10.40;;;7.13;;
3487;SDS011;38546;48.170;11.724;2024-02-26T01:06:24;12.70;;;8.17;;
3487;SDS011;38546;48.170;11.724;2024-02-26T01:08:54;12.23;;;8.20;;
3487;SDS011;38546;48.170;11.724;2024-02-26T01:11:25;12.00;;;8.00;;
3487;SDS011;38546;48.170;11.724;2024-02-26T01:13:56;12.03;;;7.77;;
3487;SDS011;38546;48.170;11.724;2024-02-26T01:16:27;12.83;;;8.37;;
3487;SDS011;38546;48.170;11.724;2024-02-26T01:18:59;10.40;;;7.50;;
3487;SDS011;38546;48.170;11.724;2024-02-26T01:21:29;11.67;;;7.73;;
3487;SDS011;38546;48.170;11.724;2024-02-26T01:24:00;11.03;;;8.20;;
3487;SDS011;38546;48.170;11.724;2024-02-26T01:26:31;12.30;;;7.90;;
3487;SDS011;38546;48.170;11.724;2024-02-26T01:29:01;11.43;;;7.57;;
3487;SDS011;38546;48.170;11.724;2024-02-26T01:31:32;12.50;;;7.37;;
3487;SDS011;38546;48.170;11.724;2024-02-26T01:34:03;10.30;;;7.40;;
3487;SDS011;38546;48.170;11.724;2024-02-26T01:36:33;11.53;;;7.03;;
3487;SDS011;38546;48.170;11.724;2024-02-26T01:39:04;11.90;;;7.73;;
3487;SDS011;38546;48.170;11.724;2024-02-26T01:41:35;9.50;;;6.93;;
3487;SDS011;38546;48.170;11.724;2024-02-26T01:44:06;12.23;;;7.80;;
3487;SDS011;38546;48.170;11.724;2024-02-26T01:46:37;11.83;;;7.00;;
3487;SDS011;38546;48.170;11.724;2024-02-26T01:49:08;9.33;;;6.57;;
3487;SDS011;38546;48.170;11.724;2024-02-26T01:51:43;10.10;;;6.90;;
3487;SDS011;38546;48.170;11.724;2024-02-26T01:54:14;11.80;;;6.87;;
3487;SDS011;38546;48.170;11.724;2024-02-26T01:56:45;9.67;;;6.57;;
3487;SDS011;38546;48.170;11.724;2024-02-26T01:59:16;10.33;;;6.53;;
3487;SDS011;38546;48.170;11.724;2024-02-26T02:01:48;10.40;;;7.43;;
3487;SDS011;38546;48.170;11.724;2024-02-26T02:04:25;8.70;;;6.47;;
3487;SDS011;38546;48.170;11.724;2024-02-26T02:06:57;6.43;;;5.30;;
3487;SDS011;38546;48.170;11.724;2024-02-26T02:09:30;11.23;;;6.17;;
3487;SDS011;38546;48.170;11.724;2024-02-26T02:12:01;6.40;;;5.40;;
3487;SDS011;38546;48.170;11.724;2024-02-26T02:14:32;9.83;;;5.03;;
3487;SDS011;38546;48.170;11.724;2024-02-26T02:17:03;6.10;;;5.30;;
3487;SDS011;38546;48.170;11.724;2024-02-26T02:19:34;6.13;;;5.20;;
3487;SDS011;38546;48.170;11.724;2024-02-26T02:22:05;5.10;;;4.60;;
3487;SDS011;38546;48.170;11.724;2024-02-26T02:24:36;8.53;;;5.63;;
3487;SDS011;38546;48.170;11.724;2024-02-26T02:27:06;5.47;;;5.00;;
3487;SDS011;38546;48.170;11.724;2024-02-26T02:29:37;6.73;;;5.50;;
3487;SDS011;38546;48.170;11.724;2024-02-26T02:32:08;8.30;;;5.90;;
3487;SDS011;38546;48.170;11.724;2024-02-26T02:34:39;5.53;;;4.37;;
3487;SDS011;38546;48.170;11.724;2024-02-26T02:37:10;10.63;;;5.00;;
3487;SDS011;38546;48.170;11.724;2024-02-26T02:39:41;7.77;;;5.30;;
3487;SDS011;38546;48.170;11.724;2024-02-26T02:42:13;4.83;;;4.20;;
3487;SDS011;38546;48.170;11.724;2024-02-26T02:44:45;5.57;;;4.50;;
3487;SDS011;38546;48.170;11.724;2024-02-26T02:47:15;4.90;;;3.60;;
3487;SDS011;38546;48.170;11.724;2024-02-26T02:49:46;4.63;;;4.23;;
3487;SDS011;38546;48.170;11.724;2024-02-26T02:52:16;5.43;;;3.97;;
3487;SDS011;38546;48.170;11.724;2024-02-26T02:54:47;4.30;;;3.90;;
3487;SDS011;38546;48.170;11.724;2024-02-26T02:57:18;4.87;;;4.37;;
3487;SDS011;38546;48.170;11.724;2024-02-26T02:59:49;6.03;;;4.30;;
3487;SDS011;38546;48.170;11.724;2024-02-26T03:02:19;4.57;;;4.00;;
3487;SDS011;38546;48.170;11.724;2024-02-26T03:04:50;8.20;;;4.00;;
3487;SDS011;38546;48.170;11.724;2024-02-26T03:07:21;5.70;;;4.13;;
3487;SDS011;38546;48.170;11.724;2024-02-26T03:09:51;4.30;;;3.90;;
3487;SDS011;38546;48.170;11.724;2024-02-26T03:12:22;4.70;;;4.20;;
3487;SDS011;38546;48.170;11.724;2024-02-26T03:14:53;4.03;;;3.73;;
3487;SDS011;38546;48.170;11.724;2024-02-26T03:17:24;3.50;;;3.30;;
3487;SDS011;38546;48.170;11.724;2024-02-26T03:19:55;4.57;;;4.10;;
3487;SDS011;38546;48.170;11.724;2024-02-26T03:22:26;6.17;;;4.90;;
3487;SDS011;38546;48.170;11.724;2024-02-26T03:24:57;4.90;;;4.20;;
3487;SDS011;38546;48.170;11.724;2024-02-26T03:27:27;4.77;;;4.33;;
3487;SDS011;38546;48.170;11.724;2024-02-26T03:29:58;4.33;;;3.93;;
3487;SDS011;38546;48.170;11.724;2024-02-26T03:32:29;6.03;;;3.83;;
3487;SDS011;38546;48.170;11.724;2024-02-26T03:34:59;6.63;;;4.57;;
3487;SDS011;38546;48.170;11.724;2024-02-26T03:37:30;5.03;;;4.53;;
3487;SDS011;38546;48.170;11.724;2024-02-26T03:40:01;4.83;;;4.30;;
3487;SDS011;38546;48.170;11.724;2024-02-26T03:42:31;6.20;;;4.07;;
3487;SDS011;38546;48.170;11.724;2024-02-26T03:45:02;5.10;;;4.30;;
3487;SDS011;38546;48.170;11.724;2024-02-26T03:47:33;5.23;;;3.90;;
3487;SDS011;38546;48.170;11.724;2024-02-26T03:50:04;6.97;;;4.33;;
3487;SDS011;38546;48.170;11.724;2024-02-26T03:52:36;4.73;;;4.33;;
3487;SDS011;38546;48.170;11.724;2024-02-26T03:55:07;5.80;;;3.90;;
3487;SDS011;38546;48.170;11.724;2024-02-26T03:57:38;4.00;;;3.70;;
3487;SDS011;38546;48.170;11.724;2024-02-26T04:00:09;3.60;;;3.30;;
3487;SDS011;38546;48.170;11.724;2024-02-26T04:02:41;4.87;;;3.77;;
3487;SDS011;38546;48.170;11.724;2024-02-26T04:05:13;4.73;;;4.20;;
3487;SDS011;38546;48.170;11.724;2024-02-26T04:07:44;3.97;;;3.67;;
3487;SDS011;38546;48.170;11.724;2024-02-26T04:10:15;3.47;;;3.17;;
3487;SDS011;38546;48.170;11.724;2024-02-26T04:12:46;4.00;;;3.50;;
3487;SDS011;38546;48.170;11.724;2024-02-26T04:15:17;3.80;;;3.50;;
3487;SDS011;38546;48.170;11.724;2024-02-26T04:17:47;3.23;;;2.93;;
3487;SDS011;38546;48.170;11.724;2024-02-26T04:20:18;3.63;;;3.40;;
3487;SDS011;38546;48.170;11.724;2024-02-26T04:22:49;3.30;;;3.10;;
3487;SDS011;38546;48.170;11.724;2024-02-26T04:25:19;2.77;;;2.53;;
3487;SDS011;38546;48.170;11.724;2024-02-26T04:27:50;3.40;;;3.17;;
3487;SDS011;38546;48.170;11.724;2024-02-26T04:30:21;4.00;;;3.00;;
3487;SDS011;38546;48.170;11.724;2024-02-26T04:32:51;7.73;;;3.70;;
3487;SDS011;38546;48.170;11.724;2024-02-26T04:35:22;3.07;;;2.77;;
3487;SDS011;38546;48.170;11.724;2024-02-26T04:37:53;4.77;;;4.27;;
3487;SDS011;38546;48.170;11.724;2024-02-26T04:40:23;5.53;;;3.67;;
3487;SDS011;38546;48.170;11.724;2024-02-26T04:42:54;3.20;;;3.00;;
3487;SDS011;38546;48.170;11.724;2024-02-26T04:45:25;3.60;;;3.00;;
3487;SDS011;38546;48.170;11.724;2024-02-26T04:47:55;3.60;;;3.30;;
3487;SDS011;38546;48.170;11.724;2024-02-26T04:50:26;3.10;;;2.90;;
3487;SDS011;38546;48.170;11.724;2024-02-26T04:52:56;3.97;;;3.20;;
3487;SDS011;38546;48.170;11.724;2024-02-26T04:55:27;3.10;;;2.90;;
3487;SDS011;38546;48.170;11.724;2024-02-26T04:57:58;3.33;;;3.13;;
3487;SDS011;38546;48.170;11.724;2024-02-26T05:00:28;4.70;;;3.23;;
3487;SDS011;38546;48.170;11.724;2024-02-26T05:02:59;3.50;;;3.20;;
3487;SDS011;38546;48.170;11.724;2024-02-26T05:05:30;3.53;;;3.20;;
3487;SDS011;38546;48.170;11.724;2024-02-26T05:08:00;4.43;;;3.80;;
3487;SDS011;38546;48.170;11.724;2024-02-26T05:10:33;3.33;;;3.03;;
3487;SDS011;38546;48.170;11.724;2024-02-26T05:13:03;4.63;;;3.80;;
3487;SDS011;38546;48.170;11.724;2024-02-26T05:15:35;5.10;;;3.70;;
3487;SDS011;38546;48.170;11.724;2024-02-26T05:18:06;5.20;;;3.97;;
3487;SDS011;38546;48.170;11.724;2024-02-26T05:20:38;4.00;;;3.70;;
3487;SDS011;38546;48.170;11.724;2024-02-26T05:23:09;4.13;;;3.70;;
3487;SDS011;38546;48.170;11.724;2024-02-26T05:25:39;4.73;;;3.00;;
3487;SDS011;38546;48.170;11.724;2024-02-26T05:28:11;3.23;;;2.97;;
3487;SDS011;38546;48.170;11.724;2024-02-26T05:30:42;3.10;;;2.90;;
3487;SDS011;38546;48.170;11.724;2024-02-26T05:33:13;3.73;;;3.40;;
3487;SDS011;38546;48.170;11.724;2024-02-26T05:35:43;4.40;;;3.30;;
3487;SDS011;38546;48.170;11.724;2024-02-26T05:38:14;3.07;;;2.77;;
3487;SDS011;38546;48.170;11.724;2024-02-26T05:40:45;3.53;;;2.90;;
3487;SDS011;38546;48.170;11.724;2024-02-26T05:43:16;2.90;;;2.70;;
3487;SDS011;38546;48.170;11.724;2024-02-26T05:45:46;3.87;;;3.37;;
3487;SDS011;38546;48.170;11.724;2024-02-26T05:48:17;5.10;;;3.50;;
3487;SDS011;38546;48.170;11.724;2024-02-26T05:50:49;7.53;;;4.40;;
3487;SDS011;38546;48.170;11.724;2024-02-26T05:53:19;3.77;;;3.43;;
3487;SDS011;38546;48.170;11.724;2024-02-26T05:55:50;6.00;;;4.07;;
3487;SDS011;38546;48.170;11.724;2024-02-26T05:58:21;3.30;;;3.10;;
3487;SDS011;38546;48.170;11.724;2024-02-26T06:00:51;3.53;;;3.30;;
3487;SDS011;38546;48.170;11.724;2024-02-26T06:03:22;4.43;;;3.43;;
3487;SDS011;38546;48.170;11.724;2024-02-26T06:05:52;4.63;;;4.23;;
3487;SDS011;38546;48.170;11.724;2024-02-26T06:08:23;3.70;;;3.40;;
3487;SDS011;38546;48.170;11.724;2024-02-26T06:10:54;5.07;;;3.70;;
3487;SDS011;38546;48.170;11.724;2024-02-26T06:13:24;4.90;;;4.37;;
3487;SDS011;38546;48.170;11.724;2024-02-26T06:15:55;4.37;;;3.97;;
3487;SDS011;38546;48.170;11.724;2024-02-26T06:18:26;3.60;;;3.30;;
3487;SDS011;38546;48.170;11.724;2024-02-26T06:20:56;5.23;;;3.50;;
3487;SDS011;38546;48.170;11.724;2024-02-26T06:23:27;3.97;;;3.20;;
3487;SDS011;38546;48.170;11.724;2024-02-26T06:25:58;3.97;;;3.67;;
3487;SDS011;38546;48.170;11.724;2024-02-26T06:28:28;3.90;;;3.60;;
3487;SDS011;38546;48.170;11.724;2024-02-26T06:31:02;3.40;;;3.10;;
3487;SDS011;38546;48.170;11.724;2024-02-26T06:33:33;4.30;;;3.90;;
3487;SDS011;38546;48.170;11.724;2024-02-26T06:36:04;3.80;;;3.40;;
3487;SDS011;38546;48.170;11.724;2024-02-26T06:38:35;3.80;;;3.30;;
3487;SDS011;38546;48.170;11.724;2024-02-26T06:41:05;3.63;;;3.40;;
3487;SDS011;38546;48.170;11.724;2024-02-26T06:43:36;3.90;;;3.50;;
3487;SDS011;38546;48.170;11.724;2024-02-26T06:46:07;5.43;;;3.93;;
3487;SDS011;38546;48.170;11.724;2024-02-26T06:48:38;5.57;;;4.10;;
3487;SDS011;38546;48.170;11.724;2024-02-26T06:51:08;4.17;;;3.50;;
3487;SDS011;38546;48.170;11.724;2024-02-26T06:53:39;4.47;;;3.90;;
3487;SDS011;38546;48.170;11.724;2024-02-26T06:56:09;7.50;;;3.70;;
3487;SDS011;38546;48.170;11.724;2024-02-26T06:58:40;7.77;;;3.13;;
3487;SDS011;38546;48.170;11.724;2024-02-26T07:01:12;7.37;;;4.17;;
3487;SDS011;38546;48.170;11.724;2024-02-26T07:03:42;9.00;;;4.10;;
3487;SDS011;38546;48.170;11.724;2024-02-26T07:06:13;6.50;;;4.00;;
3487;SDS011;38546;48.170;11.724;2024-02-26T07:08:44;5.23;;;3.80;;
3487;SDS011;38546;48.170;11.724;2024-02-26T07:11:15;5.70;;;4.00;;
3487;SDS011;38546;48.170;11.724;2024-02-26T07:13:46;4.40;;;4.10;;
3487;SDS011;38546;48.170;11.724;2024-02-26T07:16:17;4.47;;;4.00;;
3487;SDS011;38546;48.170;11.724;2024-02-26T07:18:47;6.07;;;4.00;;
3487;SDS011;38546;48.170;11.724;2024-02-26T07:21:18;4.13;;;3.70;;
3487;SDS011;38546;48.170;11.724;2024-02-26T07:23:48;4.00;;;3.70;;
3487;SDS011;38546;48.170;11.724;2024-02-26T07:26:19;4.30;;;3.87;;
3487;SDS011;38546;48.170;11.724;2024-02-26T07:28:50;4.67;;;4.17;;
3487;SDS011;38546;48.170;11.724;2024-02-26T07:31:21;6.70;;;4.13;;
3487;SDS011;38546;48.170;11.724;2024-02-26T07:33:51;12.93;;;4.23;;
3487;SDS011;38546;48.170;11.724;2024-02-26T07:36:22;8.40;;;4.53;;
3487;SDS011;38546;48.170;11.724;2024-02-26T07:38:53;5.40;;;4.27;;
3487;SDS011;38546;48.170;11.724;2024-02-26T07:41:24;11.77;;;5.27;;
3487;SDS011;38546;48.170;11.724;2024-02-26T07:43:55;6.70;;;4.30;;
3487;SDS011;38546;48.170;11.724;2024-02-26T07:46:25;8.90;;;4.50;;
3487;SDS011;38546;48.170;11.724;2024-02-26T07:48:56;12.00;;;4.90;;
3487;SDS011;38546;48.170;11.724;2024-02-26T07:51:27;7.80;;;4.67;;
3487;SDS011;38546;48.170;11.724;2024-02-26T07:53:57;7.73;;;4.30;;
3487;SDS011;38546;48.170;11.724;2024-02-26T07:56:28;7.57;;;3.50;;
3487;SDS011;38546;48.170;11.724;2024-02-26T07:58:59;8.73;;;3.67;;
3487;SDS011;38546;48.170;11.724;2024-02-26T08:01:29;6.37;;;4.27;;
3487;SDS011;38546;48.170;11.724;2024-02-26T08:04:00;8.53;;;4.57;;
3487;SDS011;38546;48.170;11.724;2024-02-26T08:06:30;14.40;;;5.17;;
3487;SDS011;38546;48.170;11.724;2024-02-26T08:09:01;8.30;;;5.70;;
3487;SDS011;38546;48.170;11.724;2024-02-26T08:11:32;7.03;;;4.90;;
3487;SDS011;38546;48.170;11.724;2024-02-26T08:14:02;5.63;;;4.93;;
3487;SDS011;38546;48.170;11.724;2024-02-26T08:16:33;6.17;;;4.30;;
3487;SDS011;38546;48.170;11.724;2024-02-26T08:19:03;7.50;;;4.77;;
3487;SDS011;38546;48.170;11.724;2024-02-26T08:21:34;6.07;;;4.80;;
3487;SDS011;38546;48.170;11.724;2024-02-26T08:24:06;9.20;;;4.80;;
3487;SDS011;38546;48.170;11.724;2024-02-26T08:26:37;9.50;;;4.67;;
3487;SDS011;38546;48.170;11.724;2024-02-26T08:29:08;6.13;;;4.60;;
3487;SDS011;38546;48.170;11.724;2024-02-26T08:31:38;5.47;;;4.33;;
3487;SDS011;38546;48.170;11.724;2024-02-26T08:34:09;4.70;;;3.90;;
3487;SDS011;38546;48.170;11.724;2024-02-26T08:36:40;3.90;;;3.60;;
3487;SDS011;38546;48.170;11.724;2024-02-26T08:39:13;3.30;;;3.10;;
3487;SDS011;38546;48.170;11.724;2024-02-26T08:41:44;3.50;;;3.20;;
3487;SDS011;38546;48.170;11.724;2024-02-26T08:44:15;4.00;;;3.20;;
3487;SDS011;38546;48.170;11.724;2024-02-26T08:46:46;2.93;;;2.77;;
3487;SDS011;38546;48.170;11.724;2024-02-26T08:49:16;4.37;;;3.20;;
3487;SDS011;38546;48.170;11.724;2024-02-26T08:51:47;2.97;;;2.77;;
3487;SDS011;38546;48.170;11.724;2024-02-26T08:54:18;3.70;;;2.93;;
3487;SDS011;38546;48.170;11.724;2024-02-26T08:56:48;7.53;;;3.67;;
3487;SDS011;38546;48.170;11.724;2024-02-26T08:59:19;2.63;;;2.43;;
3487;SDS011;38546;48.170;11.724;2024-02-26T09:01:52;4.23;;;3.50;;
3487;SDS011;38546;48.170;11.724;2024-02-26T09:04:23;2.67;;;2.47;;
3487;SDS011;38546;48.170;11.724;2024-02-26T09:06:54;3.03;;;2.83;;
3487;SDS011;38546;48.170;11.724;2024-02-26T09:09:24;3.43;;;3.13;;
3487;SDS011;38546;48.170;11.724;2024-02-26T09:11:56;5.33;;;3.07;;
3487;SDS011;38546;48.170;11.724;2024-02-26T09:14:27;3.10;;;2.80;;
3487;SDS011;38546;48.170;11.724;2024-02-26T09:16:57;4.20;;;2.73;;
3487;SDS011;38546;48.170;11.724;2024-02-26T09:19:28;8.63;;;4.13;;
3487;SDS011;38546;48.170;11.724;2024-02-26T09:21:59;6.00;;;3.10;;
3487;SDS011;38546;48.170;11.724;2024-02-26T09:24:29;6.27;;;3.47;;
3487;SDS011;38546;48.170;11.724;2024-02-26T09:27:00;4.70;;;3.13;;
3487;SDS011;38546;48.170;11.724;2024-02-26T09:29:31;4.93;;;2.90;;
3487;SDS011;38546;48.170;11.724;2024-02-26T09:32:01;3.40;;;3.10;;
3487;SDS011;38546;48.170;11.724;2024-02-26T09:34:32;5.10;;;3.03;;
3487;SDS011;38546;48.170;11.724;2024-02-26T09:37:03;3.67;;;2.60;;
3487;SDS011;38546;48.170;11.724;2024-02-26T09:39:34;2.93;;;2.73;;
3487;SDS011;38546;48.170;11.724;2024-02-26T09:42:05;2.93;;;2.53;;
3487;SDS011;38546;48.170;11.724;2024-02-26T09:44:40;5.10;;;3.20;;
3487;SDS011;38546;48.170;11.724;2024-02-26T09:47:13;3.57;;;3.27;;
3487;SDS011;38546;48.170;11.724;2024-02-26T09:49:50;3.80;;;3.50;;
3487;SDS011;38546;48.170;11.724;2024-02-26T09:52:23;3.93;;;2.87;;
3487;SDS011;38546;48.170;11.724;2024-02-26T09:54:55;4.53;;;2.87;;
3487;SDS011;38546;48.170;11.724;2024-02-26T09:57:26;5.60;;;2.67;;
3487;SDS011;38546;48.170;11.724;2024-02-26T09:59:59;3.13;;;2.20;;
3487;SDS011;38546;48.170;11.724;2024-02-26T10:02:35;4.07;;;2.40;;
3487;SDS011;38546;48.170;11.724;2024-02-26T10:05:09;11.70;;;2.77;;
3487;SDS011;38546;48.170;11.724;2024-02-26T10:07:42;6.73;;;2.10;;
3487;SDS011;38546;48.170;11.724;2024-02-26T10:10:15;2.37;;;2.20;;
3487;SDS011;38546;48.170;11.724;2024-02-26T10:12:48;2.50;;;2.27;;
3487;SDS011;38546;48.170;11.724;2024-02-26T10:15:19;1.90;;;1.83;;
3487;SDS011;38546;48.170;11.724;2024-02-26T10:17:50;2.70;;;1.90;;
3487;SDS011;38546;48.170;11.724;2024-02-26T10:20:21;2.17;;;2.07;;
3487;SDS011;38546;48.170;11.724;2024-02-26T10:22:53;3.27;;;2.00;;
3487;SDS011;38546;48.170;11.724;2024-02-26T10:25:24;2.80;;;2.40;;
3487;SDS011;38546;48.170;11.724;2024-02-26T10:27:55;2.33;;;2.13;;
3487;SDS011;38546;48.170;11.724;2024-02-26T10:30:33;2.27;;;2.10;;
3487;SDS011;38546;48.170;11.724;2024-02-26T10:33:07;2.53;;;2.10;;
3487;SDS011;38546;48.170;11.724;2024-02-26T10:35:38;1.93;;;1.83;;
3487;SDS011;38546;48.170;11.724;2024-02-26T10:38:10;2.40;;;2.20;;
3487;SDS011;38546;48.170;11.724;2024-02-26T10:40:42;1.73;;;1.63;;
3487;SDS011;38546;48.170;11.724;2024-02-26T10:43:13;2.60;;;2.40;;
3487;SDS011;38546;48.170;11.724;2024-02-26T10:45:45;3.50;;;2.00;;
3487;SDS011;38546;48.170;11.724;2024-02-26T10:48:17;2.07;;;1.97;;
3487;SDS011;38546;48.170;11.724;2024-02-26T10:50:48;2.20;;;2.10;;
3487;SDS011;38546;48.170;11.724;2024-02-26T10:53:20;2.30;;;2.10;;
3487;SDS011;38546;48.170;11.724;2024-02-26T10:55:53;5.27;;;2.20;;
3487;SDS011;38546;48.170;11.724;2024-02-26T10:58:28;2.67;;;2.47;;
3487;SDS011;38546;48.170;11.724;2024-02-26T11:00:59;3.90;;;2.50;;
3487;SDS011;38546;48.170;11.724;2024-02-26T11:03:30;3.40;;;2.70;;
3487;SDS011;38546;48.170;11.724;2024-02-26T11:06:04;5.33;;;2.43;;
3487;SDS011;38546;48.170;11.724;2024-02-26T11:08:35;3.17;;;2.87;;
3487;SDS011;38546;48.170;11.724;2024-02-26T11:11:07;3.17;;;2.97;;
3487;SDS011;38546;48.170;11.724;2024-02-26T11:13:39;2.30;;;2.20;;
3487;SDS011;38546;48.170;11.724;2024-02-26T11:16:10;2.77;;;2.57;;
3487;SDS011;38546;48.170;11.724;2024-02-26T11:18:42;2.97;;;1.73;;
3487;SDS011;38546;48.170;11.724;2024-02-26T11:21:16;2.13;;;2.03;;
3487;SDS011;38546;48.170;11.724;2024-02-26T11:23:57;2.33;;;2.13;;
3487;SDS011;38546;48.170;11.724;2024-02-26T11:26:28;2.50;;;1.73;;
3487;SDS011;38546;48.170;11.724;2024-02-26T11:28:59;1.90;;;1.80;;
3487;SDS011;38546;48.170;11.724;2024-02-26T11:31:31;1.70;;;1.60;;
3487;SDS011;38546;48.170;11.724;2024-02-26T11:34:02;1.53;;;1.43;;
3487;SDS011;38546;48.170;11.724;2024-02-26T11:36:33;1.40;;;1.30;;
3487;SDS011;38546;48.170;11.724;2024-02-26T11:39:04;1.57;;;1.27;;
3487;SDS011;38546;48.170;11.724;2024-02-26T11:41:36;1.53;;;1.50;;
3487;SDS011;38546;48.170;11.724;2024-02-26T11:44:07;1.53;;;1.50;;
3487;SDS011;38546;48.170;11.724;2024-02-26T11:46:42;3.20;;;1.60;;
3487;SDS011;38546;48.170;11.724;2024-02-26T11:49:31;1.53;;;1.43;;
3487;SDS011;38546;48.170;11.724;2024-02-26T11:52:04;1.30;;;1.20;;
3487;SDS011;38546;48.170;11.724;2024-02-26T11:54:47;1.03;;;1.03;;
3487;SDS011;38546;48.170;11.724;2024-02-26T11:57:30;2.00;;;1.00;;
3487;SDS011;38546;48.170;11.724;2024-02-26T12:00:14;1.00;;;1.00;;
3487;SDS011;38546;48.170;11.724;2024-02-26T12:02:53;1.23;;;1.13;;
3487;SDS011;38546;48.170;11.724;2024-02-26T12:05:31;1.10;;;1.00;;
3487;SDS011;38546;48.170;11.724;2024-02-26T12:08:03;1.93;;;1.50;;
3487;SDS011;38546;48.170;11.724;2024-02-26T12:10:38;1.93;;;1.50;;
3487;SDS011;38546;48.170;11.724;2024-02-26T12:13:14;1.47;;;1.37;;
3487;SDS011;38546;48.170;11.724;2024-02-26T12:15:56;2.53;;;1.40;;
3487;SDS011;38546;48.170;11.724;2024-02-26T12:18:28;1.53;;;1.30;;
3487;SDS011;38546;48.170;11.724;2024-02-26T12:21:00;1.50;;;1.40;;
3487;SDS011;38546;48.170;11.724;2024-02-26T12:23:33;2.60;;;2.40;;
3487;SDS011;38546;48.170;11.724;2024-02-26T12:26:05;2.50;;;2.30;;
3487;SDS011;38546;48.170;11.724;2024-02-26T12:28:35;8.00;;;3.90;;
3487;SDS011;38546;48.170;11.724;2024-02-26T12:31:06;10.23;;;6.43;;
3487;SDS011;38546;48.170;11.724;2024-02-26T12:33:36;9.03;;;6.47;;
3487;SDS011;38546;48.170;11.724;2024-02-26T12:36:08;6.53;;;5.77;;
3487;SDS011;38546;48.170;11.724;2024-02-26T12:38:38;7.37;;;6.63;;
3487;SDS011;38546;48.170;11.724;2024-02-26T12:41:09;9.83;;;6.27;;
3487;SDS011;38546;48.170;11.724;2024-02-26T12:43:40;6.90;;;5.50;;
3487;SDS011;38546;48.170;11.724;2024-02-26T12:46:11;9.40;;;6.53;;
3487;SDS011;38546;48.170;11.724;2024-02-26T12:48:44;6.80;;;5.57;;
3487;SDS011;38546;48.170;11.724;2024-02-26T12:51:16;10.20;;;4.87;;
3487;SDS011;38546;48.170;11.724;2024-02-26T12:53:48;7.53;;;5.50;;
3487;SDS011;38546;48.170;11.724;2024-02-26T12:56:22;10.37;;;7.37;;
3487;SDS011;38546;48.170;11.724;2024-02-26T12:58:54;6.80;;;5.57;;
3487;SDS011;38546;48.170;11.724;2024-02-26T13:01:25;8.50;;;5.73;;
3487;SDS011;38546;48.170;11.724;2024-02-26T13:03:57;6.00;;;5.40;;
3487;SDS011;38546;48.170;11.724;2024-02-26T13:06:30;7.53;;;4.57;;
3487;SDS011;38546;48.170;11.724;2024-02-26T13:09:02;6.70;;;4.73;;
3487;SDS011;38546;48.170;11.724;2024-02-26T13:11:33;4.10;;;3.73;;
3487;SDS011;38546;48.170;11.724;2024-02-26T13:14:04;6.70;;;5.60;;
3487;SDS011;38546;48.170;11.724;2024-02-26T13:16:34;5.40;;;4.70;;
3487;SDS011;38546;48.170;11.724;2024-02-26T13:19:09;5.90;;;4.80;;
3487;SDS011;38546;48.170;11.724;2024-02-26T13:21:40;4.37;;;3.90;;
3487;SDS011;38546;48.170;11.724;2024-02-26T13:24:12;5.80;;;5.20;;
3487;SDS011;38546;48.170;11.724;2024-02-26T13:26:44;4.23;;;3.77;;
3487;SDS011;38546;48.170;11.724;2024-02-26T13:29:17;5.70;;;4.57;;
3487;SDS011;38546;48.170;11.724;2024-02-26T13:31:53;5.13;;;4.63;;
3487;SDS011;38546;48.170;11.724;2024-02-26T13:34:26;6.00;;;5.40;;
3487;SDS011;38546;48.170;11.724;2024-02-26T13:37:00;4.60;;;4.20;;
3487;SDS011;38546;48.170;11.724;2024-02-26T13:39:31;4.80;;;4.40;;
3487;SDS011;38546;48.170;11.724;2024-02-26T13:42:01;7.40;;;4.30;;
3487;SDS011;38546;48.170;11.724;2024-02-26T13:44:32;6.27;;;5.07;;
3487;SDS011;38546;48.170;11.724;2024-02-26T13:47:06;5.60;;;4.90;;
3487;SDS011;38546;48.170;11.724;2024-02-26T13:49:37;5.60;;;4.37;;
3487;SDS011;38546;48.170;11.724;2024-02-26T13:52:08;4.90;;;4.03;;
3487;SDS011;38546;48.170;11.724;2024-02-26T13:54:38;4.87;;;4.03;;
3487;SDS011;38546;48.170;11.724;2024-02-26T13:57:10;6.60;;;3.97;;
3487;SDS011;38546;48.170;11.724;2024-02-26T13:59:41;4.23;;;3.87;;
3487;SDS011;38546;48.170;11.724;2024-02-26T14:02:12;7.77;;;4.40;;
3487;SDS011;38546;48.170;11.724;2024-02-26T14:04:43;4.37;;;3.97;;
3487;SDS011;38546;48.170;11.724;2024-02-26T14:07:15;4.80;;;4.40;;
3487;SDS011;38546;48.170;11.724;2024-02-26T14:09:47;4.63;;;4.10;;
3487;SDS011;38546;48.170;11.724;2024-02-26T14:12:17;5.93;;;3.70;;
3487;SDS011;38546;48.170;11.724;2024-02-26T14:14:48;5.50;;;3.33;;
3487;SDS011;38546;48.170;11.724;2024-02-26T14:17:19;4.23;;;3.37;;
3487;SDS011;38546;48.170;11.724;2024-02-26T14:19:49;3.53;;;3.23;;
3487;SDS011;38546;48.170;11.724;2024-02-26T14:22:22;3.30;;;3.00;;
3487;SDS011;38546;48.170;11.724;2024-02-26T14:24:53;4.17;;;3.20;;
3487;SDS011;38546;48.170;11.724;2024-02-26T14:27:24;3.40;;;2.43;;
3487;SDS011;38546;48.170;11.724;2024-02-26T14:29:55;3.63;;;3.03;;
3487;SDS011;38546;48.170;11.724;2024-02-26T14:32:25;3.10;;;2.80;;
3487;SDS011;38546;48.170;11.724;2024-02-26T14:34:57;3.30;;;3.00;;
3487;SDS011;38546;48.170;11.724;2024-02-26T14:37:28;3.23;;;2.90;;
3487;SDS011;38546;48.170;11.724;2024-02-26T14:39:59;3.27;;;2.97;;
3487;SDS011;38546;48.170;11.724;2024-02-26T14:42:29;4.20;;;3.07;;
3487;SDS011;38546;48.170;11.724;2024-02-26T14:45:00;2.37;;;2.27;;
3487;SDS011;38546;48.170;11.724;2024-02-26T14:47:31;2.93;;;2.67;;
3487;SDS011;38546;48.170;11.724;2024-02-26T14:50:01;2.40;;;2.30;;
3487;SDS011;38546;48.170;11.724;2024-02-26T14:52:33;3.10;;;2.30;;
3487;SDS011;38546;48.170;11.724;2024-02-26T14:55:04;2.73;;;2.30;;
3487;SDS011;38546;48.170;11.724;2024-02-26T14:57:35;2.73;;;2.30;;
3487;SDS011;38546;48.170;11.724;2024-02-26T15:00:06;2.03;;;1.93;;
3487;SDS011;38546;48.170;11.724;2024-02-26T15:02:41;2.37;;;2.13;;
3487;SDS011;38546;48.170;11.724;2024-02-26T15:05:12;3.83;;;2.73;;
3487;SDS011;38546;48.170;11.724;2024-02-26T15:07:43;2.30;;;2.10;;
3487;SDS011;38546;48.170;11.724;2024-02-26T15:10:13;3.00;;;2.10;;